Time;durP1;ratioP1;P1;durP2;ratioP2;P2;SDS_P1;SDS_P2;PMS_P1;PMS_P2;Temp;Humidity;BMP_temperature;BMP_pressure;BME280_temperature;BME280_humidity;BME280_pressure;Samples;Min_cycle;Max_cycle;Signal;HPM_P1;HPM_P2
2023/10/18 00:00:25;;;;;;;12.80;5.60;;;;;;;10.97;47.36;98326.78;4365052;32;20146;-79
2023/10/18 00:02:53;;;;;;;14.98;5.78;;;;;;;10.78;47.40;98313.75;4364877;32;20099;-79
2023/10/18 00:05:22;;;;;;;19.17;8.32;;;;;;;10.06;50.01;98307.84;4364282;32;20086;-79
2023/10/18 00:07:51;;;;;;;22.98;11.27;;;;;;;9.68;51.61;98304.94;4364985;32;20087;-79
2023/10/18 00:10:20;;;;;;;32.67;15.35;;;;;;;9.64;52.45;98300.75;4364509;32;20080;-79
2023/10/18 00:12:48;;;;;;;30.02;15.05;;;;;;;9.47;53.38;98306.50;4351719;32;20122;-79
2023/10/18 00:15:15;;;;;;;28.10;15.10;;;;;;;8.67;55.53;98297.94;4364863;32;20700;-79
2023/10/18 00:17:43;;;;;;;27.50;12.55;;;;;;;9.43;54.45;98297.19;4351210;32;20094;-79
2023/10/18 00:20:15;;;;;;;27.00;12.50;;;;;;;10.15;51.80;98289.47;4364888;32;20176;-79
2023/10/18 00:22:44;;;;;;;24.67;11.43;;;;;;;9.67;52.02;98292.91;4352026;32;20159;-79
2023/10/18 00:25:11;;;;;;;21.35;10.25;;;;;;;8.84;53.33;98300.00;4364608;32;20103;-79
2023/10/18 00:27:39;;;;;;;17.75;7.30;;;;;;;8.11;54.15;98297.91;4351692;32;20158;-79
2023/10/18 00:30:18;;;;;;;15.85;7.28;;;;;;;8.36;52.24;98287.75;4365148;32;20130;-79
2023/10/18 00:32:46;;;;;;;24.70;9.07;;;;;;;8.36;52.28;98284.34;4364902;32;20384;-79
2023/10/18 00:35:18;;;;;;;17.73;7.95;;;;;;;9.50;49.08;98287.53;4364873;32;20171;-79
2023/10/18 00:37:49;;;;;;;22.00;9.02;;;;;;;9.54;49.46;98279.63;4364639;32;20412;-79
2023/10/18 00:43:28;;;;;;;18.33;8.00;;;;;;;9.06;50.07;98271.84;4358031;32;20521;-79
2023/10/18 00:45:55;;;;;;;24.27;9.93;;;;;;;9.85;48.87;98274.22;4352863;32;20103;-79
2023/10/18 00:48:24;;;;;;;21.90;10.15;;;;;;;9.73;49.29;98271.25;4365081;32;20615;-79
2023/10/18 00:50:52;;;;;;;19.87;8.40;;;;;;;10.14;47.93;98269.75;4364744;32;20078;-79
2023/10/18 00:53:20;;;;;;;18.65;7.60;;;;;;;9.52;49.35;98254.81;4350945;32;20103;-79
2023/10/18 00:56:04;;;;;;;17.92;7.57;;;;;;;9.47;49.47;98252.41;4364646;32;20154;-79
2023/10/18 00:58:33;;;;;;;22.17;8.77;;;;;;;10.06;47.85;98245.97;4364648;32;20561;-79
2023/10/18 01:01:08;;;;;;;17.52;7.18;;;;;;;9.54;48.37;98242.72;4350763;32;20476;-79
2023/10/18 01:03:46;;;;;;;18.80;6.82;;;;;;;9.23;49.23;98241.22;4364707;32;20517;-79
2023/10/18 01:06:26;;;;;;;16.00;7.22;;;;;;;9.48;48.12;98224.94;4364445;32;20099;-79
2023/10/18 01:08:56;;;;;;;14.82;6.00;;;;;;;9.07;49.51;98234.06;4364963;32;20095;-79
2023/10/18 01:11:27;;;;;;;16.95;6.45;;;;;;;8.58;50.73;98233.09;4365070;32;20076;-79
2023/10/18 01:13:55;;;;;;;17.00;6.32;;;;;;;7.49;53.04;98238.84;4364927;32;20490;-79
2023/10/18 01:16:29;;;;;;;16.45;5.60;;;;;;;7.23;53.95;98252.38;4350577;32;20125;-79
2023/10/18 01:18:56;;;;;;;14.20;5.60;;;;;;;8.21;52.29;98248.78;4352462;32;20110;-79
2023/10/18 01:21:23;;;;;;;15.98;6.15;;;;;;;7.86;51.93;98248.06;4364821;32;20154;-79
2023/10/18 01:23:59;;;;;;;15.15;5.78;;;;;;;8.26;51.64;98249.50;4365304;32;20147;-79
2023/10/18 01:26:28;;;;;;;18.00;6.20;;;;;;;7.73;53.05;98247.59;4365799;32;20111;-79
2023/10/18 01:28:57;;;;;;;18.65;7.45;;;;;;;9.21;49.37;98255.03;4364970;32;20099;-79
2023/10/18 01:31:24;;;;;;;16.73;6.85;;;;;;;9.08;48.91;98244.31;4365410;32;20087;-79
2023/10/18 01:33:53;;;;;;;15.30;6.35;;;;;;;8.58;50.16;98251.94;4364950;32;20159;-79
2023/10/18 01:36:21;;;;;;;16.62;7.03;;;;;;;8.94;49.19;98246.53;4352154;32;20667;-79
2023/10/18 01:38:52;;;;;;;27.80;10.88;;;;;;;9.47;48.25;98246.44;4364927;32;20091;-79
2023/10/18 01:41:27;;;;;;;28.50;12.55;;;;;;;8.92;50.34;98243.13;4364226;32;20157;-79
2023/10/18 01:44:05;;;;;;;32.10;13.82;;;;;;;8.71;51.34;98247.25;4364232;32;20122;-79
2023/10/18 01:46:35;;;;;;;26.02;11.90;;;;;;;8.49;52.41;98247.06;4364194;32;20158;-79
2023/10/18 01:49:04;;;;;;;23.70;9.65;;;;;;;7.41;54.67;98256.19;4363963;32;20473;-79
2023/10/18 01:51:32;;;;;;;20.73;9.32;;;;;;;7.57;54.19;98250.66;4364187;32;20110;-80
2023/10/18 01:54:12;;;;;;;23.25;9.15;;;;;;;7.86;53.60;98242.94;4364442;32;20576;-80
2023/10/18 01:56:42;;;;;;;31.98;13.57;;;;;;;8.08;53.04;98241.47;4351952;32;20110;-79
2023/10/18 01:59:18;;;;;;;29.08;13.43;;;;;;;9.06;50.76;98240.13;4363767;32;20105;-79
2023/10/18 02:01:51;;;;;;;26.30;11.18;;;;;;;8.86;51.54;98233.06;4351368;32;20135;-79
2023/10/18 02:04:40;;;;;;;22.98;9.32;;;;;;;8.99;51.35;98237.75;4350971;32;20102;-79
2023/10/18 02:07:19;;;;;;;19.55;8.52;;;;;;;9.14;50.76;98236.38;4363821;32;20161;-79
2023/10/18 02:09:49;;;;;;;20.12;8.77;;;;;;;9.13;50.99;98232.13;4363398;32;20095;-79
2023/10/18 02:12:19;;;;;;;22.02;9.38;;;;;;;8.76;52.31;98235.09;4363736;32;20143;-79
2023/10/18 02:14:48;;;;;;;22.40;9.38;;;;;;;8.08;53.98;98238.00;4363694;32;20067;-79
2023/10/18 02:17:18;;;;;;;23.23;9.95;;;;;;;8.46;53.31;98241.19;4363450;32;20098;-79
2023/10/18 02:19:46;;;;;;;25.10;9.45;;;;;;;7.88;53.03;98235.22;4363804;32;20087;-79
2023/10/18 02:22:13;;;;;;;19.55;8.18;;;;;;;8.52;51.97;98238.44;4363784;32;20113;-80
2023/10/18 02:24:42;;;;;;;18.17;7.75;;;;;;;8.45;50.68;98247.22;4363408;32;20095;-80
2023/10/18 02:27:15;;;;;;;19.92;8.30;;;;;;;9.12;47.37;98245.03;4364105;32;20091;-80
2023/10/18 02:29:44;;;;;;;18.15;7.85;;;;;;;9.23;46.60;98232.66;4365952;32;20087;-79
2023/10/18 02:32:34;;;;;;;20.33;8.35;;;;;;;9.41;46.00;98244.06;4365265;32;20079;-79
2023/10/18 02:35:04;;;;;;;15.57;7.43;;;;;;;8.87;47.23;98233.00;4365568;32;20227;-79
2023/10/18 02:37:31;;;;;;;17.95;6.78;;;;;;;8.62;47.31;98229.56;4365451;32;20111;-79
2023/10/18 02:40:07;;;;;;;21.45;6.87;;;;;;;8.24;48.30;98234.13;4365681;32;20087;-79
2023/10/18 02:42:36;;;;;;;17.85;6.22;;;;;;;7.77;49.65;98243.22;4365774;32;20091;-79
2023/10/18 02:45:12;;;;;;;16.37;5.75;;;;;;;7.62;50.03;98238.50;4365384;32;20111;-79
2023/10/18 02:47:40;;;;;;;13.38;5.72;;;;;;;7.43;50.33;98243.28;4365945;32;20103;-80
2023/10/18 02:50:08;;;;;;;17.75;7.20;;;;;;;8.36;49.12;98245.78;4365679;32;20105;-80
2023/10/18 02:52:35;;;;;;;19.42;7.15;;;;;;;7.89;49.39;98245.44;4365198;32;20167;-79
2023/10/18 02:55:02;;;;;;;19.00;7.00;;;;;;;7.83;49.69;98246.44;4365533;32;20122;-80
2023/10/18 02:57:32;;;;;;;17.77;7.30;;;;;;;7.51;50.63;98246.50;4365641;32;20109;-79
2023/10/18 03:00:09;;;;;;;18.20;7.15;;;;;;;7.48;50.98;98255.13;4365132;32;20083;-80
2023/10/18 03:02:38;;;;;;;19.85;7.97;;;;;;;7.88;50.48;98248.91;4365658;32;20079;-79
2023/10/18 03:05:06;;;;;;;19.23;8.57;;;;;;;8.54;49.44;98252.09;4365222;32;20438;-79
2023/10/18 03:07:37;;;;;;;19.02;7.90;;;;;;;8.77;48.52;98241.06;4365806;32;20158;-79
2023/10/18 03:10:19;;;;;;;21.37;9.05;;;;;;;8.51;49.91;98236.78;4365799;32;20105;-79
2023/10/18 03:12:46;;;;;;;23.12;8.65;;;;;;;8.54;50.07;98240.06;4365235;32;20077;-79
2023/10/18 03:15:18;;;;;;;23.73;10.00;;;;;;;8.03;52.14;98239.91;4365799;32;20139;-79
2023/10/18 03:17:48;;;;;;;26.62;10.80;;;;;;;8.30;51.35;98233.94;4365631;32;20166;-79
2023/10/18 03:20:22;;;;;;;30.80;11.02;;;;;;;8.17;51.74;98235.19;4365489;32;20107;-79
2023/10/18 03:22:49;;;;;;;33.60;13.48;;;;;;;7.93;52.82;98235.91;4365946;32;20165;-79
2023/10/18 03:25:17;;;;;;;32.92;15.27;;;;;;;8.10;52.45;98236.25;4365768;32;20483;-79
2023/10/18 03:27:50;;;;;;;35.47;15.15;;;;;;;7.80;53.92;98226.00;4352386;32;20150;-80
2023/10/18 03:30:24;;;;;;;35.08;16.25;;;;;;;8.19;53.48;98241.13;4353484;32;20090;-79
2023/10/18 03:32:51;;;;;;;32.30;15.27;;;;;;;7.75;54.90;98227.84;4366213;32;20105;-80
2023/10/18 03:35:21;;;;;;;27.20;11.63;;;;;;;7.93;54.12;98236.75;4365900;32;20708;-80
2023/10/18 03:37:48;;;;;;;31.92;12.43;;;;;;;7.68;54.85;98238.34;4366787;32;20138;-79
2023/10/18 03:40:26;;;;;;;26.15;11.15;;;;;;;7.97;53.54;98240.06;4365224;32;20150;-80
2023/10/18 03:42:54;;;;;;;19.65;9.15;;;;;;;8.37;51.39;98232.03;4366768;32;20079;-80
2023/10/18 03:45:21;;;;;;;25.48;10.43;;;;;;;8.22;51.20;98230.75;4366697;32;20114;-79
2023/10/18 03:47:57;;;;;;;23.75;9.50;;;;;;;8.21;50.44;98230.81;4366426;32;20100;-79
2023/10/18 03:53:21;;;;;;;27.42;11.68;;;;;;;8.27;49.11;98228.03;4353535;32;20501;-79
2023/10/18 03:55:50;;;;;;;25.60;8.45;;;;;;;8.57;48.65;98226.28;4364841;32;20158;-79
2023/10/18 03:58:26;;;;;;;21.83;8.32;;;;;;;8.65;47.86;98222.56;4365307;32;20091;-79
2023/10/18 04:00:56;;;;;;;21.87;8.07;;;;;;;8.43;48.28;98208.72;4352373;32;20111;-79
2023/10/18 04:03:28;;;;;;;22.45;9.65;;;;;;;8.22;49.11;98212.75;4351735;32;20083;-79
2023/10/18 04:06:20;;;;;;;26.30;11.45;;;;;;;8.01;50.28;98209.09;4365165;32;20096;-79
2023/10/18 04:08:47;;;;;;;25.65;10.52;;;;;;;7.72;50.99;98201.41;4364930;32;20150;-79
2023/10/18 04:11:14;;;;;;;23.98;10.73;;;;;;;7.72;51.03;98204.81;4365090;32;20816;-79
2023/10/18 04:13:41;;;;;;;25.80;11.20;;;;;;;7.54;51.03;98208.72;4365132;32;20113;-79
2023/10/18 04:16:12;;;;;;;26.02;11.63;;;;;;;7.19;52.78;98214.00;4351490;32;20119;-79
2023/10/18 04:18:41;;;;;;;24.17;9.93;;;;;;;6.90;53.98;98212.19;4365771;32;20198;-79
2023/10/18 04:21:15;;;;;;;21.75;8.95;;;;;;;6.68;53.77;98209.31;4365645;32;20146;-79
2023/10/18 04:23:53;;;;;;;25.60;9.18;;;;;;;6.76;52.88;98204.00;4365443;32;20079;-79
2023/10/18 04:26:21;;;;;;;24.60;9.65;;;;;;;6.89;52.39;98202.81;4365900;32;20091;-79
2023/10/18 04:28:54;;;;;;;26.25;11.65;;;;;;;7.54;51.83;98200.19;4365721;32;20106;-79
2023/10/18 04:31:21;;;;;;;26.23;11.38;;;;;;;8.27;49.11;98204.91;4352865;32;20658;-79
2023/10/18 04:33:50;;;;;;;25.62;11.27;;;;;;;8.05;49.46;98208.13;4365756;32;20094;-79
2023/10/18 04:36:20;;;;;;;30.17;12.18;;;;;;;7.48;50.36;98214.06;4365587;32;20398;-80
2023/10/18 04:38:49;;;;;;;24.23;11.15;;;;;;;7.30;51.23;98206.00;4366168;32;20081;-80
2023/10/18 04:41:24;;;;;;;26.92;11.43;;;;;;;7.51;50.86;98208.00;4366407;32;20123;-80
2023/10/18 04:44:01;;;;;;;27.45;11.52;;;;;;;7.29;51.11;98222.28;4352992;32;20079;-80
2023/10/18 04:46:31;;;;;;;23.65;10.93;;;;;;;7.42;51.14;98218.50;4366352;32;20150;-79
2023/10/18 04:51:27;;;;;;;26.35;12.02;;;;;;;8.69;48.08;98207.88;4365231;32;20147;-79
2023/10/18 04:54:08;;;;;;;27.45;11.57;;;;;;;8.31;48.44;98207.34;4366185;32;20090;-79
2023/10/18 04:56:38;;;;;;;23.92;11.12;;;;;;;7.98;49.43;98200.66;4366281;32;20139;-79
2023/10/18 04:59:19;;;;;;;25.00;10.20;;;;;;;7.81;50.29;98199.41;4366015;32;20109;-79
2023/10/18 05:04:25;;;;;;;23.12;9.85;;;;;;;8.75;48.31;98209.41;4366760;32;20087;-79
2023/10/18 05:07:03;;;;;;;24.73;10.63;;;;;;;8.52;47.63;98207.59;4353423;32;20166;-79
2023/10/18 05:09:41;;;;;;;21.67;9.07;;;;;;;7.69;48.70;98204.06;4367106;32;20111;-79
2023/10/18 05:14:50;;;;;;;23.62;10.05;;;;;;;7.32;49.46;98214.50;4353860;32;20083;-80
2023/10/18 05:17:26;;;;;;;27.02;11.32;;;;;;;7.17;49.84;98218.34;4355374;32;20107;-80
2023/10/18 05:19:56;;;;;;;28.45;10.82;;;;;;;7.27;49.68;98221.50;4367271;32;20601;-79
2023/10/18 05:22:24;;;;;;;37.50;12.30;;;;;;;7.40;49.44;98216.00;4367461;32;20095;-79
2023/10/18 05:25:11;;;;;;;26.25;11.05;;;;;;;7.39;49.73;98216.03;4365580;32;20465;-76
2023/10/18 05:27:45;;;;;;;25.02;11.02;;;;;;;7.58;49.59;98217.22;4350852;32;20138;-76
2023/10/18 05:30:17;;;;;;;32.47;13.40;;;;;;;8.63;46.78;98221.78;4349743;32;20177;-76
2023/10/18 05:33:02;;;;;;;25.60;10.80;;;;;;;8.25;47.30;98228.09;4363967;32;20166;-76
2023/10/18 05:37:59;;;;;;;32.90;11.82;;;;;;;7.34;49.03;98228.16;4364236;32;20151;-76
2023/10/18 05:43:12;;;;;;;26.48;12.27;;;;;;;7.39;50.17;98239.13;4364176;32;20087;-76
2023/10/18 05:45:43;;;;;;;27.48;13.15;;;;;;;7.79;49.31;98234.59;4350717;32;20079;-76
2023/10/18 05:48:16;;;;;;;28.27;12.35;;;;;;;8.02;49.34;98233.91;4363936;32;20117;-77
2023/10/18 05:50:56;;;;;;;27.27;12.52;;;;;;;8.00;49.66;98237.44;4349378;32;20171;-76
2023/10/18 05:53:29;;;;;;;30.95;13.60;;;;;;;8.10;53.41;98226.81;4363994;32;20106;-76
2023/10/18 05:55:57;;;;;;;32.63;13.50;;;;;;;9.35;49.80;98241.69;4363699;32;20075;-77
2023/10/18 05:58:26;;;;;;;35.20;15.27;;;;;;;9.79;48.43;98240.13;4364031;32;20162;-77
2023/10/18 06:00:58;;;;;;;33.17;15.35;;;;;;;9.61;49.64;98239.03;4362695;32;20476;-77
2023/10/18 06:03:25;;;;;;;35.55;16.35;;;;;;;10.24;48.74;98239.34;4365654;32;20087;-77
2023/10/18 06:05:57;;;;;;;38.38;16.67;;;;;;;11.16;47.19;98242.47;4368036;32;20078;-77
2023/10/18 06:08:25;;;;;;;31.10;14.48;;;;;;;11.88;43.89;98247.97;4353365;32;20106;-77
2023/10/18 06:11:00;;;;;;;31.45;13.95;;;;;;;12.44;42.18;98254.91;4365542;32;20119;-77
2023/10/18 06:13:28;;;;;;;25.23;12.25;;;;;;;12.66;41.54;98251.31;4365695;32;20158;-77
2023/10/18 06:16:05;;;;;;;27.08;12.37;;;;;;;13.79;39.99;98266.38;4365097;32;20079;-77
2023/10/18 06:18:37;;;;;;;27.45;12.43;;;;;;;14.03;39.64;98259.88;4352273;32;20115;-78
2023/10/18 06:21:12;;;;;;;26.85;12.77;;;;;;;14.65;38.40;98253.06;4364703;32;20171;-77
2023/10/18 06:23:39;;;;;;;23.87;11.32;;;;;;;15.63;36.96;98247.44;4365464;32;20098;-77
2023/10/18 06:28:53;;;;;;;35.78;15.85;;;;;;;16.93;34.89;98253.16;4365545;32;20108;-78
2023/10/18 06:31:21;;;;;;;39.35;17.98;;;;;;;17.35;33.91;98248.66;4364476;32;20382;-78
2023/10/18 06:33:55;;;;;;;42.03;17.73;;;;;;;18.00;33.49;98245.97;4365119;32;20552;-78
2023/10/18 06:36:26;;;;;;;34.75;17.12;;;;;;;19.09;32.58;98257.28;4365115;32;20076;-78
2023/10/18 06:38:53;;;;;;;50.03;21.02;;;;;;;19.52;31.55;98251.44;4365651;32;20086;-78
2023/10/18 06:41:23;;;;;;;32.25;14.30;;;;;;;19.54;31.29;98262.63;4364109;32;20200;-79
2023/10/18 06:43:50;;;;;;;28.75;13.80;;;;;;;19.94;31.38;98255.22;4365162;32;20105;-78
2023/10/18 06:46:28;;;;;;;30.25;14.43;;;;;;;19.83;31.83;98258.66;4365220;32;20110;-78
2023/10/18 06:48:56;;;;;;;28.15;12.82;;;;;;;18.92;33.22;98255.06;4365593;32;20763;-78
2023/10/18 06:51:40;;;;;;;21.73;10.93;;;;;;;18.41;33.71;98250.03;4363995;32;20099;-78
2023/10/18 06:54:54;;;;;;;19.95;10.38;;;;;;;20.26;31.47;98262.34;4365220;32;20467;-79
2023/10/18 06:56:57;;;;;;;19.70;10.85;;;;;;;19.42;32.37;98255.72;4359661;32;20110;-78
2023/10/18 06:59:28;;;;;;;19.90;9.77;;;;;;;20.90;30.48;98255.41;4365238;32;20095;-78
2023/10/18 07:01:58;;;;;;;19.62;10.30;;;;;;;21.32;30.11;98250.25;4350950;32;20115;-78
2023/10/18 07:04:28;;;;;;;18.00;9.77;;;;;;;21.13;30.13;98247.44;4364535;32;20109;-78
2023/10/18 07:06:55;;;;;;;19.80;10.60;;;;;;;18.89;33.40;98256.13;4352381;32;20355;-78
2023/10/18 07:09:24;;;;;;;19.98;9.95;;;;;;;20.15;32.01;98244.84;4365311;32;20114;-78
2023/10/18 07:12:03;;;;;;;17.55;9.10;;;;;;;19.52;33.10;98252.28;4364876;32;20099;-78
2023/10/18 07:14:31;;;;;;;21.10;9.52;;;;;;;18.27;34.78;98251.00;4365166;32;20094;-79
2023/10/18 07:17:01;;;;;;;18.23;9.45;;;;;;;18.77;35.03;98254.41;4365157;32;20569;-78
2023/10/18 07:19:33;;;;;;;25.40;11.12;;;;;;;17.52;36.45;98253.56;4365067;32;20138;-77
2023/10/18 07:22:06;;;;;;;20.90;10.18;;;;;;;17.69;36.49;98244.62;4365250;32;20162;-78
2023/10/18 07:24:39;;;;;;;20.37;10.10;;;;;;;17.61;36.90;98244.28;4365028;32;20095;-79
2023/10/18 07:27:09;;;;;;;18.23;9.70;;;;;;;18.27;35.92;98235.31;4365162;32;20174;-79
2023/10/18 07:29:37;;;;;;;21.95;10.98;;;;;;;16.00;40.27;98242.59;4365020;32;20095;-79
2023/10/18 07:32:07;;;;;;;20.15;9.68;;;;;;;16.84;38.61;98238.13;4364654;32;20166;-78
2023/10/18 07:34:37;;;;;;;17.85;9.95;;;;;;;16.60;39.34;98239.69;4364859;32;20103;-80
2023/10/18 07:37:24;;;;;;;19.27;9.77;;;;;;;16.16;40.17;98238.09;4365192;32;20108;-79
2023/10/18 07:39:59;;;;;;;19.10;10.02;;;;;;;14.86;42.44;98232.84;4364891;32;20143;-79
2023/10/18 07:42:27;;;;;;;21.42;10.25;;;;;;;15.72;41.05;98236.44;4365272;32;20102;-79
2023/10/18 07:44:55;;;;;;;21.65;11.12;;;;;;;14.87;42.89;98241.47;4365046;32;20096;-78
2023/10/18 07:47:25;;;;;;;21.80;10.73;;;;;;;15.33;42.25;98237.88;4351659;32;20087;-79
2023/10/18 07:49:58;;;;;;;21.87;10.68;;;;;;;15.07;42.84;98235.13;4365115;32;20137;-78
2023/10/18 07:52:25;;;;;;;22.17;11.35;;;;;;;16.15;40.86;98237.25;4351699;32;20106;-79
2023/10/18 07:54:53;;;;;;;25.33;11.63;;;;;;;15.85;41.22;98232.19;4364507;32;20095;-79
2023/10/18 07:57:29;;;;;;;23.30;11.18;;;;;;;15.83;41.37;98226.22;4365140;32;20079;-79
2023/10/18 08:00:21;;;;;;;21.98;12.00;;;;;;;16.06;41.21;98235.25;4364666;32;20491;-82
2023/10/18 08:02:43;;;;;;;22.98;11.88;;;;;;;15.30;41.98;98240.66;4364929;32;20100;-78
2023/10/18 08:05:11;;;;;;;19.98;10.65;;;;;;;15.76;41.59;98226.72;4365007;32;20454;-79
2023/10/18 08:07:38;;;;;;;21.58;11.12;;;;;;;15.26;42.20;98231.38;4364652;32;20075;-79
2023/10/18 08:10:08;;;;;;;21.80;11.15;;;;;;;15.36;42.30;98243.84;4363746;32;20402;-79
2023/10/18 08:12:35;;;;;;;25.08;11.55;;;;;;;16.40;40.71;98233.97;4365017;32;20494;-79
2023/10/18 08:15:13;;;;;;;21.40;11.38;;;;;;;13.90;45.43;98236.34;4351190;32;20162;-79
2023/10/18 08:17:44;;;;;;;23.25;11.95;;;;;;;14.97;44.02;98237.41;4365001;32;20101;-78
2023/10/18 08:22:52;;;;;;;20.77;10.38;;;;;;;17.12;39.36;98246.72;4352416;32;20095;-78
2023/10/18 08:25:24;;;;;;;18.75;9.35;;;;;;;17.28;39.17;98236.97;4350742;32;20095;-79
2023/10/18 08:27:51;;;;;;;22.80;10.48;;;;;;;18.39;36.77;98238.84;4364597;32;20229;-79
2023/10/18 08:30:38;;;;;;;19.27;9.10;;;;;;;19.18;35.48;98240.91;4364545;32;20167;-79
2023/10/18 08:33:06;;;;;;;18.20;8.25;;;;;;;18.42;36.50;98229.03;4364744;32;20107;-79
2023/10/18 08:35:33;;;;;;;16.15;7.87;;;;;;;18.46;35.99;98222.63;4364046;32;20501;-79
2023/10/18 08:38:03;;;;;;;19.42;8.40;;;;;;;17.38;37.50;98227.56;4364846;32;20103;-79
2023/10/18 08:43:39;;;;;;;16.73;8.73;;;;;;;18.50;35.95;98229.31;4364542;32;20450;-78
2023/10/18 08:46:06;;;;;;;15.88;7.87;;;;;;;17.83;36.94;98226.22;4347225;32;20092;-78
2023/10/18 08:48:38;;;;;;;19.62;8.73;;;;;;;16.74;39.24;98227.47;4351096;32;20154;-78
2023/10/18 08:51:06;;;;;;;16.92;8.50;;;;;;;17.27;38.91;98227.47;4363515;32;20459;-78
2023/10/18 08:53:35;;;;;;;15.80;8.60;;;;;;;16.53;40.51;98226.19;4351038;32;20121;-78
2023/10/18 08:56:05;;;;;;;20.15;8.25;;;;;;;16.48;40.42;98220.44;4350685;32;20091;-80
2023/10/18 08:58:36;;;;;;;18.42;8.60;;;;;;;17.57;38.44;98220.19;4364733;32;20071;-79
2023/10/18 09:01:05;;;;;;;17.30;8.75;;;;;;;16.75;39.96;98215.25;4350759;32;20107;-80
2023/10/18 09:03:35;;;;;;;17.85;8.55;;;;;;;17.37;39.46;98219.88;4351122;32;20103;-79
2023/10/18 09:06:04;;;;;;;15.70;7.18;;;;;;;17.45;38.83;98221.03;4364179;32;20102;-80
2023/10/18 09:08:42;;;;;;;14.70;6.87;;;;;;;18.47;35.62;98218.22;4364568;32;20101;-80
2023/10/18 09:11:21;;;;;;;13.50;6.28;;;;;;;17.47;37.52;98213.09;4339282;32;20248;-78
2023/10/18 09:14:07;;;;;;;16.05;6.60;;;;;;;17.70;36.15;98207.16;4351966;32;20107;-79
2023/10/18 09:16:41;;;;;;;15.73;6.30;;;;;;;19.20;33.45;98202.37;4365325;32;20111;-79
2023/10/18 09:19:10;;;;;;;13.38;6.45;;;;;;;19.19;33.51;98194.66;4351149;32;20106;-79
2023/10/18 09:21:56;;;;;;;10.82;5.00;;;;;;;19.24;33.44;98211.66;4364179;32;20154;-79
2023/10/18 09:24:29;;;;;;;13.95;5.82;;;;;;;20.20;30.53;98193.78;4364194;32;20106;-79
2023/10/18 09:26:58;;;;;;;12.55;5.68;;;;;;;19.79;32.16;98204.03;4351068;32;20443;-79
2023/10/18 09:29:29;;;;;;;14.48;5.62;;;;;;;19.22;32.66;98200.50;4364221;32;20083;-79
2023/10/18 09:32:12;;;;;;;11.52;5.05;;;;;;;19.57;32.53;98195.25;4363975;32;20166;-79
2023/10/18 09:34:42;;;;;;;13.55;4.87;;;;;;;19.77;31.45;98196.28;4352370;32;20195;-79
2023/10/18 09:37:12;;;;;;;11.77;5.07;;;;;;;19.36;32.36;98194.22;4364416;32;20146;-79
2023/10/18 09:39:43;;;;;;;17.98;8.57;;;;;;;19.48;32.60;98190.69;4365691;32;20158;-80
2023/10/18 09:42:15;;;;;;;10.60;4.03;;;;;;;19.48;33.57;98195.06;4371203;32;20114;-79
2023/10/18 09:44:44;;;;;;;9.52;4.00;;;;;;;19.96;31.81;98200.09;4351014;32;20159;-79
2023/10/18 09:47:11;;;;;;;11.73;4.05;;;;;;;19.41;31.51;98194.69;4350901;33;20109;-79
2023/10/18 09:49:41;;;;;;;10.38;4.28;;;;;;;19.77;30.21;98191.06;4337656;33;20110;-79
2023/10/18 09:52:12;;;;;;;10.27;4.53;;;;;;;19.82;31.16;98193.31;4337408;33;20103;-79
2023/10/18 09:54:51;;;;;;;10.55;4.40;;;;;;;19.28;32.07;98199.19;4350936;33;20458;-79
2023/10/18 09:57:23;;;;;;;11.50;4.22;;;;;;;18.93;32.84;98196.63;4351079;33;20171;-79
2023/10/18 09:59:54;;;;;;;13.50;3.50;;;;;;;19.33;32.21;98191.81;4337618;33;20455;-79
2023/10/18 10:02:21;;;;;;;11.45;4.03;;;;;;;19.19;31.95;98192.88;4337454;33;20169;-79
2023/10/18 10:04:54;;;;;;;8.10;3.20;;;;;;;19.08;31.39;98182.41;4355918;32;20099;-79
2023/10/18 10:07:27;;;;;;;9.80;3.55;;;;;;;19.07;31.41;98192.03;4377628;32;20095;-79
2023/10/18 10:10:07;;;;;;;9.45;3.65;;;;;;;18.68;32.55;98182.72;4380819;32;20109;-77
2023/10/18 10:12:36;;;;;;;11.48;3.75;;;;;;;18.62;32.71;98174.50;4380678;32;20593;-78
2023/10/18 10:15:13;;;;;;;10.10;4.10;;;;;;;19.13;31.68;98175.03;4379746;32;20105;-78
2023/10/18 10:17:41;;;;;;;;;;;;;;;18.44;32.31;98174.88;4381091;32;20501;-77
2023/10/18 10:20:15;;;;;;;11.15;3.75;;;;;;;18.58;33.43;98168.62;4366974;32;19967;-77
2023/10/18 10:22:43;;;;;;;8.25;3.30;;;;;;;19.79;32.17;98156.91;4380691;32;20095;-78
2023/10/18 10:25:30;;;;;;;9.77;3.53;;;;;;;19.74;30.29;98165.13;4367018;32;20587;-78
2023/10/18 10:31:58;;;;;;;11.00;3.70;;;;;;;19.04;31.09;98160.06;4333765;33;20092;-78
2023/10/18 10:34:34;;;;;;;9.90;4.20;;;;;;;19.26;31.04;98148.78;4333150;33;20130;-78
2023/10/18 10:37:15;;;;;;;12.68;4.03;;;;;;;19.15;31.86;98140.94;4357571;32;20094;-77
2023/10/18 10:40:14;;;;;;;10.35;3.45;;;;;;;19.35;31.97;98148.06;4367101;32;20091;-78
2023/10/18 10:47:57;;;;;;;10.35;4.43;;;;;;;19.19;31.95;98131.88;4752112;27;20116;-78
2023/10/18 11:02:06;;;;;;;13.00;6.22;;;;;;;18.11;33.67;98131.16;4411836;27;20507;-79
2023/10/18 11:04:48;;;;;;;16.23;4.85;;;;;;;18.49;33.83;98122.28;4410236;32;20107;-79
2023/10/18 11:07:23;;;;;;;9.55;4.20;;;;;;;19.10;32.42;98111.66;4396861;32;20168;-79
2023/10/18 11:10:06;;;;;;;11.37;5.47;;;;;;;19.53;31.61;98122.25;4410416;32;20098;-78
2023/10/18 11:12:34;;;;;;;11.68;5.07;;;;;;;19.41;31.11;98118.00;4704108;27;20181;-78
2023/10/18 11:21:19;;;;;;;13.50;5.95;;;;;;;18.28;34.15;98105.56;4377407;32;20130;-78
2023/10/18 11:33:17;;;;;;;13.27;6.10;;;;;;;18.26;34.98;98089.19;4524614;27;20160;-79
2023/10/18 11:35:48;;;;;;;11.27;5.78;;;;;;;18.51;34.25;98086.44;4382424;32;20086;-80
2023/10/18 11:38:19;;;;;;;11.40;5.12;;;;;;;18.50;34.11;98082.16;4395090;32;20105;-78
2023/10/18 11:40:50;;;;;;;12.27;5.32;;;;;;;18.29;33.72;98081.13;4395211;32;20213;-78
2023/10/18 11:43:25;;;;;;;12.95;5.28;;;;;;;18.59;34.29;98085.84;4380567;32;20087;-78
2023/10/18 11:46:06;;;;;;;13.85;5.03;;;;;;;18.64;33.76;98074.16;4379417;32;20090;-79
2023/10/18 11:48:35;;;;;;;13.55;5.68;;;;;;;19.16;32.66;98067.59;4380088;32;20145;-79
2023/10/18 11:51:02;;;;;;;13.77;6.15;;;;;;;18.95;32.79;98067.44;4366034;32;20095;-79
2023/10/18 11:53:29;;;;;;;12.02;5.80;;;;;;;18.96;32.89;98057.81;4380107;32;20116;-79
2023/10/18 11:56:01;;;;;;;12.52;5.68;;;;;;;18.83;32.50;98055.31;4379589;32;20097;-78
2023/10/18 11:58:33;;;;;;;13.52;5.55;;;;;;;18.79;33.27;98065.16;4379770;32;20145;-78
2023/10/18 12:01:17;;;;;;;11.55;5.60;;;;;;;18.37;33.76;98061.31;4379044;32;20095;-80
2023/10/18 12:03:46;;;;;;;13.15;5.85;;;;;;;19.03;32.86;98056.38;4366395;32;20177;-80
2023/10/18 12:06:14;;;;;;;11.52;5.25;;;;;;;18.49;33.44;98051.75;4366204;32;20095;-79
2023/10/18 12:09:07;;;;;;;13.50;5.85;;;;;;;18.97;32.34;98044.63;4380094;32;20438;-79
2023/10/18 12:11:35;;;;;;;11.15;5.55;;;;;;;19.01;32.97;98032.97;4380023;32;20118;-81
2023/10/18 12:14:04;;;;;;;12.25;5.50;;;;;;;18.60;33.81;98040.47;4379468;32;20434;-82
2023/10/18 12:16:34;;;;;;;12.63;5.65;;;;;;;19.36;33.19;98029.41;4380061;32;20117;-81
2023/10/18 12:19:01;;;;;;;13.68;4.90;;;;;;;19.44;31.78;98028.78;4366912;32;20079;-81
2023/10/18 12:21:31;;;;;;;15.27;5.93;;;;;;;19.36;31.70;98018.94;4379263;32;20131;-81
2023/10/18 12:23:58;;;;;;;11.80;5.60;;;;;;;19.51;32.14;98009.88;4379769;32;20169;-81
2023/10/18 12:26:25;;;;;;;10.68;4.87;;;;;;;20.65;30.34;98004.09;4365997;32;20086;-80
2023/10/18 12:28:52;;;;;;;11.48;5.30;;;;;;;20.50;30.02;97998.31;4379945;32;20109;-80
2023/10/18 12:31:28;;;;;;;15.45;5.03;;;;;;;19.03;32.18;97998.84;4380350;32;20395;-80
2023/10/18 12:33:59;;;;;;;14.10;5.20;;;;;;;19.59;31.65;98001.44;4379670;32;20090;-79
2023/10/18 12:36:38;;;;;;;10.73;4.90;;;;;;;19.10;32.18;97989.59;4379879;32;20091;-80
2023/10/18 12:39:08;;;;;;;12.32;4.97;;;;;;;19.52;31.86;97981.91;4367985;32;20098;-79
2023/10/18 12:41:39;;;;;;;11.52;4.65;;;;;;;19.33;31.53;97985.97;4380198;32;20153;-82
2023/10/18 12:44:18;;;;;;;13.50;4.53;;;;;;;19.15;32.28;97971.75;4379802;32;20103;-81
2023/10/18 12:46:45;;;;;;;11.32;4.75;;;;;;;19.16;32.28;97964.75;4379800;32;20079;-83
2023/10/18 12:49:12;;;;;;;12.70;4.60;;;;;;;19.39;32.34;97965.53;4379261;32;20116;-85
2023/10/18 12:51:42;;;;;;;10.02;4.55;;;;;;;18.82;32.81;97959.56;4366162;32;20442;-84